createdAt,value
2018-09-21T00:01:39.464Z,7.60
2018-09-21T00:04:10.539Z,9.45
2018-09-21T00:06:38.829Z,6.45
2018-09-21T00:09:08.208Z,7.22
2018-09-21T00:11:36.496Z,8.83
2018-09-21T00:14:04.596Z,8.48
2018-09-21T00:16:32.658Z,8.18
2018-09-21T00:19:00.729Z,10.55
2018-09-21T00:21:28.817Z,7.37
2018-09-21T00:23:56.829Z,9.20
2018-09-21T00:26:24.887Z,9.58
2018-09-21T00:28:53.192Z,7.60
2018-09-21T00:31:21.248Z,8.38
2018-09-21T00:33:49.317Z,8.80
2018-09-21T00:36:17.399Z,8.18
2018-09-21T00:38:45.456Z,6.58
2018-09-21T00:41:13.558Z,7.83
2018-09-21T00:43:41.595Z,7.72
2018-09-21T00:46:09.644Z,7.80
2018-09-21T00:48:37.696Z,10.60
2018-09-21T00:51:05.796Z,9.83
2018-09-21T00:53:33.850Z,10.78
2018-09-21T00:56:01.936Z,11.80
2018-09-21T00:58:29.984Z,12.05
2018-09-21T01:00:58.044Z,13.75
2018-09-21T01:03:26.089Z,11.15
2018-09-21T01:05:54.153Z,12.55
2018-09-21T01:08:22.193Z,9.43
2018-09-21T01:10:50.262Z,8.75
2018-09-21T01:13:18.314Z,6.35
2018-09-21T01:15:46.358Z,9.45
2018-09-21T01:18:14.412Z,12.10
2018-09-21T01:20:42.460Z,13.72
2018-09-21T01:23:10.514Z,12.35
2018-09-21T01:25:38.584Z,12.78
2018-09-21T01:28:06.652Z,10.38
2018-09-21T01:30:34.684Z,8.88
2018-09-21T01:33:02.752Z,9.88
2018-09-21T01:35:30.831Z,10.40
2018-09-21T01:37:58.859Z,10.90
2018-09-21T01:40:26.923Z,5.87
2018-09-21T01:42:54.972Z,8.75
2018-09-21T01:45:23.040Z,11.03
2018-09-21T01:47:51.091Z,7.55
2018-09-21T01:50:19.188Z,7.78
2018-09-21T01:52:47.200Z,8.83
2018-09-21T01:55:15.275Z,9.35
2018-09-21T01:57:43.321Z,6.42
2018-09-21T02:00:11.385Z,11.93
2018-09-21T02:02:39.480Z,10.63
2018-09-21T02:05:07.525Z,9.13
2018-09-21T02:07:35.595Z,8.05
2018-09-21T02:10:03.642Z,8.30
2018-09-21T02:12:31.704Z,5.83
2018-09-21T02:14:59.803Z,7.87
2018-09-21T02:17:27.848Z,3.77
2018-09-21T02:19:55.888Z,6.50
2018-09-21T02:22:23.935Z,8.20
2018-09-21T02:24:52.017Z,7.10
2018-09-21T02:27:20.060Z,8.45
2018-09-21T02:29:48.108Z,6.08
2018-09-21T02:32:16.178Z,5.75
2018-09-21T02:34:44.224Z,6.90
2018-09-21T02:37:12.292Z,6.53
2018-09-21T02:39:40.352Z,7.95
2018-09-21T02:42:08.426Z,8.85
2018-09-21T02:44:36.470Z,9.03
2018-09-21T02:47:04.512Z,9.15
2018-09-21T02:49:32.551Z,6.95
2018-09-21T02:52:00.625Z,9.98
2018-09-21T02:54:28.677Z,7.40
2018-09-21T02:56:56.719Z,7.90
2018-09-21T02:59:24.784Z,8.05
2018-09-21T03:01:52.840Z,5.78
2018-09-21T03:04:20.881Z,6.90
2018-09-21T03:06:49.029Z,6.47
2018-09-21T03:09:17.088Z,7.22
2018-09-21T03:11:45.128Z,4.03
2018-09-21T03:14:13.184Z,9.38
2018-09-21T03:16:41.220Z,7.12
2018-09-21T03:19:09.271Z,9.03
2018-09-21T03:21:37.315Z,7.95
2018-09-21T03:24:05.368Z,7.08
2018-09-21T03:26:33.442Z,11.18
2018-09-21T03:29:01.496Z,6.10
2018-09-21T03:31:29.577Z,10.60
2018-09-21T03:33:57.652Z,9.00
2018-09-21T03:36:25.701Z,6.55
2018-09-21T03:38:53.791Z,9.53
2018-09-21T03:41:21.841Z,7.55
2018-09-21T03:43:49.888Z,5.62
2018-09-21T03:46:17.968Z,9.00
2018-09-21T03:48:46.040Z,12.05
2018-09-21T03:51:14.140Z,11.93
2018-09-21T03:53:42.226Z,7.22
2018-09-21T03:56:10.232Z,9.28
2018-09-21T03:58:38.289Z,9.40
2018-09-21T04:01:06.787Z,10.18
2018-09-21T04:03:34.884Z,10.30
2018-09-21T04:06:02.981Z,10.88
2018-09-21T04:08:31.036Z,8.60
2018-09-21T04:10:59.160Z,11.53
2018-09-21T04:13:27.229Z,8.65
2018-09-21T04:15:55.287Z,13.78
2018-09-21T04:18:23.351Z,9.65
2018-09-21T04:20:51.396Z,8.70
2018-09-21T04:23:19.478Z,7.37
2018-09-21T04:25:47.524Z,9.68
2018-09-21T04:28:15.588Z,7.17
2018-09-21T04:30:43.657Z,10.15
2018-09-21T04:33:11.725Z,9.88
2018-09-21T04:35:39.800Z,9.30
2018-09-21T04:38:07.842Z,10.58
2018-09-21T04:40:35.912Z,13.70
2018-09-21T04:43:03.973Z,13.35
2018-09-21T04:45:32.044Z,7.87
2018-09-21T04:48:00.096Z,14.28
2018-09-21T04:50:28.148Z,11.85
2018-09-21T04:52:56.220Z,13.32
2018-09-21T04:55:24.292Z,9.50
2018-09-21T04:57:52.355Z,10.80
2018-09-21T05:00:20.420Z,11.65
2018-09-21T05:02:48.472Z,11.40
2018-09-21T05:05:16.536Z,13.55
2018-09-21T05:07:44.592Z,12.05
2018-09-21T05:10:12.639Z,8.45
2018-09-21T05:12:40.725Z,11.48
2018-09-21T05:15:08.792Z,11.38
2018-09-21T05:17:36.856Z,13.75
2018-09-21T05:20:04.977Z,17.48
2018-09-21T05:22:33.052Z,11.85
2018-09-21T05:25:01.149Z,10.13
2018-09-21T05:27:29.234Z,9.70
2018-09-21T05:29:57.280Z,11.93
2018-09-21T05:32:25.360Z,10.20
2018-09-21T05:34:53.428Z,9.40
2018-09-21T05:37:21.530Z,12.18
2018-09-21T05:39:49.605Z,10.90
2018-09-21T05:42:17.695Z,14.50
2018-09-21T05:44:45.800Z,12.82
2018-09-21T05:47:13.920Z,14.68
2018-09-21T05:49:41.973Z,11.40
2018-09-21T05:52:10.584Z,12.07
2018-09-21T05:54:38.649Z,8.78
2018-09-21T05:57:06.832Z,10.53
2018-09-21T05:59:34.912Z,11.65
2018-09-21T06:02:03.029Z,12.82
2018-09-21T06:04:31.050Z,11.30
2018-09-21T06:06:59.141Z,9.33
2018-09-21T06:09:27.218Z,13.43
2018-09-21T06:11:55.280Z,6.65
2018-09-21T06:14:23.353Z,7.72
2018-09-21T06:16:51.428Z,13.88
2018-09-21T06:19:19.515Z,9.63
2018-09-21T06:21:47.557Z,9.18
2018-09-21T06:24:15.633Z,12.30
2018-09-21T06:26:43.700Z,11.80
2018-09-21T06:29:11.760Z,11.10
2018-09-21T06:31:39.833Z,10.70
2018-09-21T06:34:07.944Z,14.80
2018-09-21T06:36:36.032Z,14.40
2018-09-21T06:39:06.264Z,13.22
2018-09-21T06:41:34.375Z,13.65
2018-09-21T06:44:02.440Z,15.00
2018-09-21T06:46:30.516Z,17.57
2018-09-21T06:48:58.563Z,20.68
2018-09-21T06:51:26.632Z,18.67
2018-09-21T06:53:54.689Z,15.45
2018-09-21T06:56:22.764Z,15.28
2018-09-21T06:58:50.823Z,14.05
2018-09-21T07:01:18.957Z,15.15
2018-09-21T07:03:46.963Z,11.78
2018-09-21T07:06:15.113Z,14.87
2018-09-21T07:08:43.159Z,25.50
2018-09-21T07:11:11.212Z,17.90
2018-09-21T07:13:39.280Z,20.88
2018-09-21T07:16:07.332Z,18.00
2018-09-21T07:18:35.395Z,14.95
2018-09-21T07:21:03.454Z,20.00
2018-09-21T07:23:31.501Z,15.98
2018-09-21T07:25:59.599Z,16.82
2018-09-21T07:28:27.667Z,14.83
2018-09-21T07:30:55.730Z,15.28
2018-09-21T07:33:23.780Z,21.10
2018-09-21T07:35:51.855Z,13.00
2018-09-21T07:38:19.912Z,16.20
2018-09-21T07:40:48.000Z,18.35
2018-09-21T07:43:16.069Z,22.90
2018-09-21T07:45:44.130Z,26.73
2018-09-21T07:48:12.208Z,20.77
2018-09-21T07:50:40.360Z,17.12
2018-09-21T07:53:08.626Z,18.82
2018-09-21T07:55:36.696Z,20.15
2018-09-21T07:58:04.756Z,19.00
2018-09-21T08:00:32.823Z,21.80
2018-09-21T08:03:00.920Z,19.37
2018-09-21T08:05:35.075Z,27.55
2018-09-21T08:08:04.671Z,24.10
2018-09-21T08:10:32.713Z,26.30
2018-09-21T08:13:01.348Z,18.10
2018-09-21T08:15:29.999Z,15.98
2018-09-21T08:17:58.120Z,19.50
2018-09-21T08:20:26.540Z,19.42
2018-09-21T08:22:54.644Z,24.07
2018-09-21T08:25:22.681Z,18.02
2018-09-21T08:27:50.740Z,26.23
2018-09-21T08:30:18.877Z,24.43
2018-09-21T08:32:46.942Z,19.20
2018-09-21T08:35:14.992Z,20.52
2018-09-21T08:37:43.103Z,18.65
2018-09-21T08:40:11.176Z,17.10
2018-09-21T08:42:39.248Z,15.45
2018-09-21T08:45:07.767Z,26.60
2018-09-21T08:47:35.825Z,21.15
2018-09-21T08:50:03.876Z,23.47
2018-09-21T08:52:31.937Z,24.10
2018-09-21T08:55:00.056Z,17.98
2018-09-21T08:57:28.113Z,25.12
2018-09-21T08:59:56.186Z,23.38
2018-09-21T09:02:24.232Z,27.87
2018-09-21T09:04:52.311Z,23.50
2018-09-21T09:07:20.383Z,24.63
2018-09-21T09:09:48.428Z,20.32
2018-09-21T09:12:16.501Z,23.20
2018-09-21T09:14:44.561Z,17.90
2018-09-21T09:17:12.641Z,15.15
2018-09-21T09:19:40.702Z,20.88
2018-09-21T09:22:08.772Z,17.60
2018-09-21T09:24:36.889Z,21.50
2018-09-21T09:27:04.936Z,17.98
2018-09-21T09:29:32.991Z,21.85
2018-09-21T09:32:01.097Z,27.62
2018-09-21T09:34:29.159Z,18.05
2018-09-21T09:36:57.302Z,16.95
2018-09-21T09:39:25.261Z,22.82
2018-09-21T09:41:53.330Z,16.52
2018-09-21T09:44:21.404Z,12.93
2018-09-21T09:46:49.488Z,16.07
2018-09-21T09:49:17.583Z,11.93
2018-09-21T09:51:45.634Z,18.95
2018-09-21T09:54:13.704Z,13.68
2018-09-21T09:56:41.772Z,13.53
2018-09-21T09:59:09.876Z,20.95
2018-09-21T10:01:37.944Z,13.70
2018-09-21T10:04:06.020Z,12.28
2018-09-21T10:06:34.104Z,13.95
2018-09-21T10:09:02.174Z,15.08
2018-09-21T10:11:30.253Z,16.82
2018-09-21T10:13:58.312Z,13.98
2018-09-21T10:16:27.237Z,10.35
2018-09-21T10:18:55.261Z,7.25
2018-09-21T10:21:23.324Z,10.55
2018-09-21T10:23:51.382Z,9.50
2018-09-21T10:26:19.451Z,8.35
2018-09-21T10:28:47.643Z,8.30
2018-09-21T10:31:15.597Z,8.05
2018-09-21T10:33:43.770Z,7.42
2018-09-21T10:36:11.735Z,11.57
2018-09-21T10:38:39.873Z,15.30
2018-09-21T10:41:07.865Z,11.35
2018-09-21T10:43:35.928Z,7.12
2018-09-21T10:46:03.996Z,8.85
2018-09-21T10:48:32.061Z,5.80
2018-09-21T10:51:00.471Z,9.23
2018-09-21T10:53:28.235Z,6.20
2018-09-21T10:55:56.299Z,6.80
2018-09-21T10:58:24.376Z,6.17
2018-09-21T11:00:52.449Z,5.28
2018-09-21T11:03:20.509Z,7.92
2018-09-21T11:05:48.571Z,3.80
2018-09-21T11:08:16.655Z,3.80
2018-09-21T11:10:44.916Z,4.97
2018-09-21T11:13:13.042Z,5.20
2018-09-21T11:15:41.038Z,6.50
2018-09-21T11:18:09.126Z,4.15
2018-09-21T11:20:37.201Z,3.80
2018-09-21T11:23:05.469Z,3.75
2018-09-21T11:25:33.541Z,4.10
2018-09-21T11:28:01.613Z,4.33
2018-09-21T11:30:29.681Z,2.65
2018-09-21T11:32:57.770Z,4.65
2018-09-21T11:35:25.837Z,3.35
2018-09-21T11:37:53.899Z,2.87
2018-09-21T11:40:21.962Z,3.65
2018-09-21T11:42:50.012Z,3.30
2018-09-21T11:45:18.101Z,3.17
2018-09-21T11:47:46.197Z,2.98
2018-09-21T11:50:14.452Z,3.50
2018-09-21T11:52:42.520Z,3.05
2018-09-21T11:55:10.588Z,3.65
2018-09-21T11:57:38.861Z,2.42
2018-09-21T12:00:06.937Z,5.10
2018-09-21T12:02:34.985Z,2.95
2018-09-21T12:05:03.107Z,2.65
2018-09-21T12:07:31.105Z,3.77
2018-09-21T12:09:59.177Z,3.58
2018-09-21T12:12:27.239Z,2.58
2018-09-21T12:14:55.325Z,4.45
2018-09-21T12:17:23.386Z,1.85
2018-09-21T12:19:51.438Z,3.55
2018-09-21T12:22:19.493Z,3.15
2018-09-21T12:24:47.556Z,4.15
2018-09-21T12:27:15.631Z,2.92
2018-09-21T12:29:43.705Z,2.62
2018-09-21T12:32:11.769Z,2.37
2018-09-21T12:34:39.864Z,2.58
2018-09-21T12:37:07.930Z,3.12
2018-09-21T12:39:35.996Z,3.52
2018-09-21T12:42:04.051Z,2.60
2018-09-21T12:44:32.183Z,3.17
2018-09-21T12:47:00.200Z,2.42
2018-09-21T12:49:28.269Z,4.47
2018-09-21T12:51:56.334Z,4.62
2018-09-21T12:54:24.442Z,4.92
2018-09-21T12:56:52.559Z,4.28
2018-09-21T12:59:20.605Z,3.08
2018-09-21T13:01:48.663Z,2.45
2018-09-21T13:04:16.732Z,2.25
2018-09-21T13:06:44.797Z,5.03
2018-09-21T13:09:12.872Z,2.92
2018-09-21T13:11:40.914Z,2.85
2018-09-21T13:14:08.981Z,2.02
2018-09-21T13:16:37.036Z,3.67
2018-09-21T13:19:05.161Z,2.27
2018-09-21T13:21:40.026Z,2.62
2018-09-21T13:24:08.092Z,4.28
2018-09-21T13:26:36.160Z,3.55
2018-09-21T13:29:04.184Z,5.85
2018-09-21T13:31:32.256Z,3.10
2018-09-21T13:34:00.295Z,3.47
2018-09-21T13:36:28.367Z,1.90
2018-09-21T13:38:56.421Z,3.47
2018-09-21T13:41:24.506Z,2.02
2018-09-21T13:43:52.565Z,3.90
2018-09-21T13:46:20.653Z,3.12
2018-09-21T13:48:48.722Z,4.08
2018-09-21T13:51:16.796Z,2.72
2018-09-21T13:53:44.861Z,2.05
2018-09-21T13:56:12.932Z,2.65
2018-09-21T13:58:40.993Z,1.72
2018-09-21T14:01:09.053Z,2.05
2018-09-21T14:03:37.124Z,2.55
2018-09-21T14:06:05.916Z,1.70
2018-09-21T14:08:34.841Z,3.58
2018-09-21T14:11:02.940Z,2.17
2018-09-21T14:13:30.990Z,2.62
2018-09-21T14:15:59.080Z,1.92
2018-09-21T14:18:27.149Z,5.35
2018-09-21T14:20:55.538Z,2.52
2018-09-21T14:23:23.669Z,2.05
2018-09-21T14:25:51.740Z,1.95
2018-09-21T14:28:19.820Z,2.90
2018-09-21T14:30:47.895Z,3.85
2018-09-21T14:33:15.956Z,1.45
2018-09-21T14:35:44.086Z,2.15
2018-09-21T14:38:12.105Z,1.72
2018-09-21T14:40:40.220Z,2.52
2018-09-21T14:43:08.325Z,1.75
2018-09-21T14:45:36.374Z,1.70
2018-09-21T14:48:04.460Z,2.50
2018-09-21T14:50:32.561Z,2.45
2018-09-21T14:53:00.609Z,1.32
2018-09-21T14:55:28.714Z,3.70
2018-09-21T14:57:56.801Z,2.33
2018-09-21T15:00:24.872Z,2.77
2018-09-21T15:02:53.216Z,1.87
2018-09-21T15:05:21.286Z,1.55
2018-09-21T15:07:49.689Z,2.98
2018-09-21T15:10:17.760Z,2.42
2018-09-21T15:12:45.840Z,2.02
2018-09-21T15:15:13.940Z,5.53
2018-09-21T15:17:41.992Z,2.50
2018-09-21T15:20:10.051Z,2.00
2018-09-21T15:22:38.249Z,2.30
2018-09-21T15:25:06.360Z,2.45
2018-09-21T15:27:34.452Z,2.52
2018-09-21T15:30:02.510Z,1.72
2018-09-21T15:32:30.591Z,2.27
2018-09-21T15:34:58.660Z,2.50
2018-09-21T15:37:26.704Z,2.85
2018-09-21T15:39:54.760Z,2.42
2018-09-21T15:42:22.848Z,2.20
2018-09-21T15:44:50.909Z,3.20
2018-09-21T15:47:18.976Z,5.20
2018-09-21T15:49:47.040Z,2.90
2018-09-21T15:52:15.092Z,1.40
2018-09-21T15:54:43.126Z,2.45
2018-09-21T15:57:11.167Z,2.17
2018-09-21T15:59:39.233Z,2.47
2018-09-21T16:02:07.302Z,2.10
2018-09-21T16:04:35.357Z,1.65
2018-09-21T16:07:03.463Z,3.10
2018-09-21T16:09:31.505Z,2.90
2018-09-21T16:11:59.668Z,4.33
2018-09-21T16:14:27.658Z,2.45
2018-09-21T16:16:55.701Z,3.00
2018-09-21T16:19:23.800Z,3.90
2018-09-21T16:21:51.868Z,4.85
2018-09-21T16:24:19.999Z,3.95
2018-09-21T16:26:48.004Z,4.78
2018-09-21T16:29:16.084Z,2.20
2018-09-21T16:31:44.164Z,3.40
2018-09-21T16:34:12.264Z,3.20
2018-09-21T16:36:40.343Z,2.95
2018-09-21T16:39:09.908Z,4.37
2018-09-21T16:41:38.030Z,3.80
2018-09-21T16:44:06.346Z,2.98
2018-09-21T16:46:34.549Z,4.17
2018-09-21T16:49:02.619Z,3.75
2018-09-21T16:51:30.713Z,3.83
2018-09-21T16:53:58.719Z,2.17
2018-09-21T16:56:26.798Z,3.35
2018-09-21T16:58:54.878Z,2.37
2018-09-21T17:01:22.945Z,1.60
2018-09-21T17:03:51.009Z,3.67
2018-09-21T17:06:19.080Z,2.70
2018-09-21T17:08:47.149Z,1.70
2018-09-21T17:11:15.233Z,1.70
2018-09-21T17:13:43.278Z,2.77
2018-09-21T17:16:11.339Z,2.62
2018-09-21T17:18:39.409Z,2.27
2018-09-21T17:21:07.473Z,1.85
2018-09-21T17:23:35.529Z,3.40
2018-09-21T17:26:03.614Z,3.20
2018-09-21T17:28:31.701Z,2.17
2018-09-21T17:30:59.797Z,3.55
2018-09-21T17:33:27.865Z,2.30
2018-09-21T17:35:55.920Z,2.10
2018-09-21T17:38:24.049Z,1.90
2018-09-21T17:40:52.147Z,2.40
2018-09-21T17:43:20.373Z,2.50
2018-09-21T17:45:48.444Z,4.40
2018-09-21T17:48:16.570Z,4.42
2018-09-21T17:50:44.651Z,2.00
2018-09-21T17:53:12.715Z,2.90
2018-09-21T17:55:40.777Z,2.55
2018-09-21T17:58:08.876Z,1.87
2018-09-21T18:00:36.976Z,2.60
2018-09-21T18:03:05.041Z,1.50
2018-09-21T18:05:33.106Z,2.47
2018-09-21T18:08:01.150Z,2.10
2018-09-21T18:10:29.248Z,2.72
2018-09-21T18:12:57.792Z,1.67
2018-09-21T18:15:25.872Z,3.37
2018-09-21T18:17:54.040Z,1.82
2018-09-21T18:20:22.132Z,2.00
2018-09-21T18:22:50.290Z,1.80
2018-09-21T18:25:18.388Z,2.27
2018-09-21T18:27:46.448Z,1.60
2018-09-21T18:30:14.504Z,2.02
2018-09-21T18:32:42.572Z,2.22
2018-09-21T18:35:10.630Z,2.35
2018-09-21T18:37:38.681Z,2.15
2018-09-21T18:40:07.480Z,1.87
2018-09-21T18:42:35.542Z,1.95
2018-09-21T18:45:03.632Z,1.95
2018-09-21T18:47:31.719Z,3.02
2018-09-21T18:50:00.080Z,1.90
2018-09-21T18:52:34.005Z,4.80
2018-09-21T18:55:02.064Z,2.37
2018-09-21T18:57:30.107Z,2.10
2018-09-21T18:59:58.160Z,1.50
2018-09-21T19:02:26.228Z,3.02
2018-09-21T19:04:54.279Z,3.08
2018-09-21T19:07:27.800Z,1.30
2018-09-21T19:09:55.851Z,2.25
2018-09-21T19:12:23.996Z,1.65
2018-09-21T19:14:52.089Z,1.17
2018-09-21T19:17:20.169Z,1.87
2018-09-21T19:19:48.264Z,1.10
2018-09-21T19:22:16.490Z,2.33
2018-09-21T19:24:44.621Z,1.82
2018-09-21T19:27:12.676Z,3.25
2018-09-21T19:29:40.740Z,2.08
2018-09-21T19:32:08.844Z,1.62
2018-09-21T19:34:36.892Z,3.27
2018-09-21T19:37:05.032Z,2.00
2018-09-21T19:39:33.132Z,1.47
2018-09-21T19:42:01.192Z,2.35
2018-09-21T19:44:29.264Z,2.42
2018-09-21T19:46:57.364Z,3.95
2018-09-21T19:49:25.450Z,2.00
2018-09-21T19:51:53.537Z,1.85
2018-09-21T19:54:21.650Z,1.57
2018-09-21T19:56:49.701Z,1.47
2018-09-21T19:59:17.808Z,1.92
2018-09-21T20:01:45.873Z,1.80
2018-09-21T20:04:13.950Z,1.80
2018-09-21T20:06:42.004Z,1.40
2018-09-21T20:09:11.226Z,1.67
2018-09-21T20:11:39.279Z,2.77
2018-09-21T20:14:07.384Z,2.10
2018-09-21T20:16:35.491Z,3.50
2018-09-21T20:19:03.518Z,2.10
2018-09-21T20:21:31.636Z,1.77
2018-09-21T20:23:59.708Z,1.60
2018-09-21T20:26:27.788Z,1.98
2018-09-21T20:28:55.849Z,1.50
2018-09-21T20:31:29.519Z,3.77
2018-09-21T20:33:57.572Z,2.98
2018-09-21T20:36:25.646Z,1.77
2018-09-21T20:38:53.712Z,2.30
2018-09-21T20:41:21.777Z,1.45
2018-09-21T20:43:49.832Z,1.05
2018-09-21T20:46:17.880Z,1.42
2018-09-21T20:48:45.961Z,1.27
2018-09-21T20:51:14.036Z,1.60
2018-09-21T20:53:42.088Z,2.37
2018-09-21T20:56:10.145Z,1.12
2018-09-21T20:58:38.190Z,4.60
2018-09-21T21:01:06.288Z,2.10
2018-09-21T21:03:34.355Z,2.55
2018-09-21T21:06:02.419Z,1.20
2018-09-21T21:08:30.564Z,1.30
2018-09-21T21:10:58.640Z,1.82
2018-09-21T21:13:26.688Z,3.95
2018-09-21T21:15:54.771Z,1.95
2018-09-21T21:18:23.112Z,1.87
2018-09-21T21:20:51.185Z,1.55
2018-09-21T21:23:19.232Z,1.80
2018-09-21T21:25:47.334Z,1.20
2018-09-21T21:28:15.389Z,2.17
2018-09-21T21:30:43.459Z,2.92
2018-09-21T21:33:11.531Z,3.20
2018-09-21T21:35:39.615Z,2.35
2018-09-21T21:38:07.700Z,2.55
2018-09-21T21:40:35.758Z,2.65
2018-09-21T21:43:03.807Z,1.07
2018-09-21T21:45:31.877Z,1.25
2018-09-21T21:47:59.928Z,1.57
2018-09-21T21:50:28.020Z,1.10
2018-09-21T21:52:56.105Z,1.30
2018-09-21T21:55:24.190Z,2.95
2018-09-21T21:57:52.241Z,1.70
2018-09-21T22:00:20.316Z,3.33
2018-09-21T22:02:48.425Z,1.52
2018-09-21T22:05:16.484Z,1.80
2018-09-21T22:07:44.551Z,2.10
2018-09-21T22:10:12.616Z,1.52
2018-09-21T22:12:46.019Z,1.65
2018-09-21T22:15:18.556Z,1.62
2018-09-21T22:17:47.036Z,2.10
2018-09-21T22:20:15.161Z,1.92
2018-09-21T22:22:43.212Z,2.40
2018-09-21T22:25:11.857Z,1.85
2018-09-21T22:27:40.132Z,2.52
2018-09-21T22:30:08.723Z,1.65
2018-09-21T22:32:36.860Z,1.62
2018-09-21T22:35:04.956Z,3.65
2018-09-21T22:37:32.999Z,2.15
2018-09-21T22:40:01.070Z,1.67
2018-09-21T22:42:29.104Z,1.40
2018-09-21T22:44:57.203Z,1.17
2018-09-21T22:47:25.240Z,1.75
2018-09-21T22:49:53.293Z,1.70
2018-09-21T22:52:21.348Z,2.52
2018-09-21T22:54:49.413Z,1.62
2018-09-21T22:57:17.460Z,1.25
2018-09-21T22:59:45.521Z,1.62
2018-09-21T23:02:13.663Z,2.75
2018-09-21T23:04:41.720Z,1.17
2018-09-21T23:07:09.780Z,1.32
2018-09-21T23:09:37.869Z,1.35
2018-09-21T23:12:05.924Z,1.30
2018-09-21T23:14:33.982Z,1.65
2018-09-21T23:17:02.055Z,3.05
2018-09-21T23:19:30.109Z,1.62
2018-09-21T23:21:58.185Z,3.25
2018-09-21T23:24:26.241Z,2.20
2018-09-21T23:26:54.319Z,2.62
2018-09-21T23:29:22.385Z,1.20
2018-09-21T23:31:50.510Z,1.27
2018-09-21T23:34:18.554Z,1.00
2018-09-21T23:36:46.582Z,1.30
2018-09-21T23:39:14.648Z,2.17
2018-09-21T23:41:42.711Z,1.60
2018-09-21T23:44:10.840Z,1.70
2018-09-21T23:46:38.952Z,2.25
2018-09-21T23:49:07.068Z,1.67
2018-09-21T23:51:35.272Z,1.92
2018-09-21T23:54:03.328Z,2.45
2018-09-21T23:56:31.428Z,1.95
2018-09-21T23:58:59.496Z,1.30
